Time;durP1;ratioP1;P1;durP2;ratioP2;P2;SDS_P1;SDS_P2;PMS_P1;PMS_P2;Temp;Humidity;BMP_temperature;BMP_pressure;BME280_temperature;BME280_humidity;BME280_pressure;Samples;Min_cycle;Max_cycle;Signal;HPM_P1;HPM_P2
2022/01/13 00:03:41;;;;;;;;;;;;;;;1.16;97.14;102216.06;8182147;28;19927;-80
2022/01/13 00:07:43;;;;;;;;;;;;;;;1.21;97.89;102216.50;8179667;28;20387;-80
2022/01/13 00:11:49;;;;;;;;;;;;;;;1.30;97.85;102221.16;8202722;28;20043;-80
2022/01/13 00:16:22;;;;;;;;;;;;;;;1.39;97.49;102224.09;8173788;28;19926;-79
2022/01/13 00:24:41;;;;;;;;;;;;;;;1.54;96.79;102220.91;8193156;28;20013;-80
2022/01/13 00:28:44;;;;;;;;;;;;;;;1.56;96.73;102218.06;8197457;28;19922;-80
2022/01/13 00:32:46;;;;;;;;;;;;;;;1.61;96.07;102221.28;8189952;28;19961;-80
2022/01/13 00:36:48;;;;;;;;;;;;;;;1.60;96.27;102225.81;8203625;28;19922;-81
2022/01/13 00:40:49;;;;;;;;;;;;;;;1.55;96.02;102216.38;8192808;28;20043;-80
2022/01/13 00:44:51;;;;;;;;;;;;;;;1.47;96.14;102224.31;8195043;28;20248;-79
2022/01/13 00:48:53;;;;;;;;;;;;;;;1.49;96.75;102227.75;8184344;28;19926;-79
2022/01/13 00:52:54;;;;;;;;;;;;;;;1.57;95.91;102230.66;8181600;28;19923;-79
2022/01/13 00:56:55;;;;;;;;;;;;;;;1.60;96.67;102230.41;8205038;28;20637;-80
2022/01/13 01:00:58;;;;;;;;;;;;;;;1.67;96.11;102226.19;8186521;28;19931;-80
2022/01/13 01:05:00;;;;;;;;;;;;;;;1.71;95.96;102238.50;8192436;28;19926;-80
2022/01/13 01:09:02;;;;;;;;;;;;;;;1.76;95.72;102232.69;8197381;28;20363;-81
2022/01/13 01:13:11;;;;;;;;;;;;;;;1.84;95.42;102232.84;8178692;28;19927;-80
2022/01/13 01:17:17;;;;;;;;;;;;;;;1.85;96.20;102239.16;8197053;28;20025;-80
2022/01/13 01:22:18;;;;;;;;;;;;;;;1.90;95.56;102236.88;8185634;28;19966;-81
2022/01/13 01:25:47;;;;;;;;;;;;;;;1.92;95.49;102227.59;8187193;28;19993;-81
2022/01/13 01:29:57;;;;;;;;;;;;;;;1.98;95.50;102227.06;8198685;28;20342;-80
2022/01/13 01:38:07;;;;;;;;;;;;;;;1.98;94.63;102237.09;8209981;28;19934;-81
2022/01/13 01:42:08;;;;;;;;;;;;;;;1.90;95.19;102228.72;8193252;28;19978;-81
2022/01/13 01:46:09;;;;;;;;;;;;;;;1.92;96.46;102234.91;8194437;28;19926;-80
2022/01/13 01:50:18;;;;;;;;;;;;;;;1.97;96.13;102235.38;8199787;28;19930;-80
2022/01/13 01:54:21;;;;;;;;;;;;;;;1.96;96.51;102231.81;8203232;28;19926;-81
2022/01/13 01:58:26;;;;;;;;;;;;;;;1.93;96.19;102228.47;8193732;28;19934;-79
2022/01/13 02:02:29;;;;;;;;;;;;;;;1.94;95.35;102232.94;8175947;28;20415;-81
2022/01/13 02:06:31;;;;;;;;;;;;;;;1.91;96.20;102230.47;8180546;28;20013;-81
2022/01/13 02:10:33;;;;;;;;;;;;;;;1.93;95.81;102220.31;8192536;28;19922;-81
2022/01/13 02:14:47;;;;;;;;;;;;;;;1.98;96.00;102220.78;8178665;28;19922;-81
2022/01/13 02:18:49;;;;;;;;;;;;;;;2.00;95.36;102211.50;8174567;28;19930;-80
2022/01/13 02:22:50;;;;;;;;;;;;;;;2.00;95.12;102206.06;8185090;28;19968;-81
2022/01/13 02:26:52;;;;;;;;;;;;;;;2.01;95.67;102196.03;8155548;28;19923;-81
2022/01/13 02:30:53;;;;;;;;;;;;;;;2.00;95.50;102202.47;8202741;28;19953;-81
2022/01/13 02:34:54;;;;;;;;;;;;;;;2.02;95.20;102204.06;8186409;28;19927;-80
2022/01/13 02:38:57;;;;;;;;;;;;;;;2.03;95.11;102196.75;8196558;28;19930;-81
2022/01/13 02:42:58;;;;;;;;;;;;;;;2.03;94.86;102199.47;8197311;28;20471;-81
2022/01/13 02:47:20;;;;;;;;;;;;;;;2.02;94.44;102192.28;8193113;28;19934;-79
2022/01/13 02:51:42;;;;;;;;;;;;;;;1.99;94.94;102192.56;8189887;28;19930;-80
2022/01/13 02:55:43;;;;;;;;;;;;;;;1.91;95.35;102201.44;8171301;28;19929;-82
2022/01/13 02:59:44;;;;;;;;;;;;;;;1.96;95.34;102210.06;8205207;28;20447;-82
2022/01/13 03:03:47;;;;;;;;;;;;;;;1.94;95.84;102206.59;8197064;28;19968;-81
2022/01/13 03:07:48;;;;;;;;;;;;;;;1.97;95.77;102194.59;8193690;28;19923;-82
2022/01/13 03:11:50;;;;;;;;;;;;;;;2.01;95.01;102198.75;8183973;28;19927;-82
2022/01/13 03:15:52;;;;;;;;;;;;;;;1.98;94.92;102208.03;8162561;28;19927;-81
2022/01/13 03:19:53;;;;;;;;;;;;;;;2.04;94.76;102212.94;8212406;28;19923;-81
2022/01/13 03:23:55;;;;;;;;;;;;;;;2.03;94.69;102210.34;8191677;28;19927;-80
2022/01/13 03:28:04;;;;;;;;;;;;;;;2.03;94.56;102219.38;8193493;28;19934;-81
2022/01/13 03:32:05;;;;;;;;;;;;;;;1.89;94.66;102218.88;8188242;28;21262;-81
2022/01/13 03:36:07;;;;;;;;;;;;;;;1.78;95.19;102217.94;8185294;28;19926;-81
2022/01/13 03:40:08;;;;;;;;;;;;;;;1.77;95.33;102221.66;8179900;28;19926;-81
2022/01/13 03:44:18;;;;;;;;;;;;;;;1.73;95.07;102214.78;8196010;28;20384;-80
2022/01/13 03:48:20;;;;;;;;;;;;;;;1.67;95.41;102220.75;8176303;28;20277;-80
2022/01/13 03:52:22;;;;;;;;;;;;;;;1.66;95.35;102213.56;8192631;28;19978;-81
2022/01/13 03:56:35;;;;;;;;;;;;;;;1.55;95.14;102216.38;8182978;28;19927;-81
2022/01/13 04:00:56;;;;;;;;;;;;;;;1.56;95.44;102216.22;8183753;28;19931;-80
2022/01/13 04:04:57;;;;;;;;;;;;;;;1.49;95.22;102215.03;8181545;28;20312;-81
2022/01/13 04:08:59;;;;;;;;;;;;;;;1.36;95.90;102207.06;8180020;28;19926;-80
2022/01/13 04:13:00;;;;;;;;;;;;;;;1.43;96.53;102196.53;8179263;28;19922;-80
2022/01/13 04:17:02;;;;;;;;;;;;;;;1.47;96.74;102198.00;8177187;28;19969;-80
2022/01/13 04:21:03;;;;;;;;;;;;;;;1.49;96.60;102192.44;8198441;28;20525;-80
2022/01/13 04:25:05;;;;;;;;;;;;;;;1.49;96.58;102187.88;8194077;28;20398;-80
2022/01/13 04:33:12;;;;;;;;;;;;;;;1.52;96.39;102190.31;8194063;28;20402;-80
2022/01/13 04:37:14;;;;;;;;;;;;;;;1.53;96.18;102192.03;8203986;28;19970;-81
2022/01/13 04:41:28;;;;;;;;;;;;;;;1.50;96.23;102202.31;8197230;28;19926;-80
2022/01/13 04:45:29;;;;;;;;;;;;;;;1.53;96.99;102202.03;8191358;28;19922;-81
2022/01/13 04:49:30;;;;;;;;;;;;;;;1.57;96.87;102192.63;8195141;28;19926;-81
2022/01/13 04:53:32;;;;;;;;;;;;;;;1.54;97.32;102195.59;8196753;28;19922;-80
2022/01/13 04:57:33;;;;;;;;;;;;;;;1.54;97.54;102196.47;8181890;28;19927;-80
2022/01/13 05:01:35;;;;;;;;;;;;;;;1.59;96.81;102194.22;8176542;28;19923;-80
2022/01/13 05:05:36;;;;;;;;;;;;;;;1.60;96.48;102203.22;8196439;28;20000;-79
2022/01/13 05:09:38;;;;;;;;;;;;;;;1.59;96.33;102196.06;8190905;28;19922;-80
2022/01/13 05:13:39;;;;;;;;;;;;;;;1.49;96.55;102195.16;8188491;28;20363;-80
2022/01/13 05:22:06;;;;;;;;;;;;;;;1.53;96.44;102199.31;8190286;28;19945;-79
2022/01/13 05:26:06;;;;;;;;;;;;;;;1.53;96.89;102202.03;8198201;28;19930;-78
2022/01/13 05:30:08;;;;;;;;;;;;;;;1.55;97.06;102200.91;8193304;28;19926;-79
2022/01/13 05:34:10;;;;;;;;;;;;;;;1.62;96.89;102206.69;8195886;28;19926;-78
2022/01/13 05:38:31;;;;;;;;;;;;;;;1.64;96.58;102199.25;8197344;28;20038;-78
2022/01/13 05:42:33;;;;;;;;;;;;;;;1.67;96.92;102209.88;8198345;28;19930;-78
2022/01/13 05:46:36;;;;;;;;;;;;;;;1.68;96.84;102205.28;8194927;28;19926;-80
2022/01/13 05:50:38;;;;;;;;;;;;;;;1.67;96.95;102204.44;8191796;28;19926;-80
2022/01/13 05:54:39;;;;;;;;;;;;;;;1.68;96.96;102205.28;8177920;28;20379;-80
2022/01/13 05:58:41;;;;;;;;;;;;;;;1.71;96.25;102210.47;8193425;28;19934;-81
2022/01/13 06:02:44;;;;;;;;;;;;;;;1.69;96.29;102218.72;8195844;28;20597;-78
2022/01/13 06:06:46;;;;;;;;;;;;;;;1.70;96.79;102219.63;8186712;28;19926;-78
2022/01/13 06:10:48;;;;;;;;;;;;;;;1.69;97.08;102217.88;8173486;28;19922;-78
2022/01/13 06:14:50;;;;;;;;;;;;;;;1.70;96.33;102225.91;8185736;28;19997;-78
2022/01/13 06:18:51;;;;;;;;;;;;;;;1.72;97.12;102239.34;8169957;28;19922;-78
2022/01/13 06:22:53;;;;;;;;;;;;;;;1.73;96.60;102236.50;8191549;28;19923;-78
2022/01/13 06:26:54;;;;;;;;;;;;;;;1.73;96.87;102246.53;8166425;28;19930;-78
2022/01/13 06:30:55;;;;;;;;;;;;;;;1.71;96.12;102243.94;8183795;28;20376;-80
2022/01/13 06:34:57;;;;;;;;;;;;;;;1.84;96.92;102251.88;8192230;28;19930;-78
2022/01/13 06:38:59;;;;;;;;;;;;;;;1.92;97.02;102248.50;8187391;28;19930;-78
2022/01/13 06:43:00;;;;;;;;;;;;;;;1.90;95.96;102243.19;8169036;28;19922;-77
2022/01/13 06:47:02;;;;;;;;;;;;;;;1.90;97.04;102237.75;8185710;28;20013;-78
2022/01/13 06:51:04;;;;;;;;;;;;;;;1.95;96.29;102240.94;8193227;28;20134;-78
2022/01/13 06:55:05;;;;;;;;;;;;;;;1.99;97.22;102228.81;8200360;28;19928;-78
2022/01/13 06:59:11;;;;;;;;;;;;;;;2.02;96.74;102238.53;8194957;28;19934;-78
2022/01/13 07:03:13;;;;;;;;;;;;;;;2.00;96.02;102248.69;8192582;28;19922;-78
2022/01/13 07:07:16;;;;;;;;;;;;;;;2.02;95.65;102246.69;8188307;28;19926;-78
2022/01/13 07:11:17;;;;;;;;;;;;;;;2.04;95.71;102244.72;8194197;28;19930;-79
2022/01/13 07:15:22;;;;;;;;;;;;;;;2.04;96.16;102247.44;8174675;28;20249;-77
2022/01/13 07:19:24;;;;;;;;;;;;;;;1.95;95.48;102249.09;8189663;28;20110;-78
2022/01/13 07:23:25;;;;;;;;;;;;;;;2.01;96.38;102255.84;8193050;28;19934;-78
2022/01/13 07:27:27;;;;;;;;;;;;;;;2.04;95.61;102261.88;8195048;28;19980;-78
2022/01/13 07:31:28;;;;;;;;;;;;;;;1.96;95.64;102259.00;8194498;28;19956;-78
2022/01/13 07:35:30;;;;;;;;;;;;;;;1.96;95.59;102253.56;8189914;28;19926;-78
2022/01/13 07:39:31;;;;;;;;;;;;;;;1.94;95.01;102255.53;8203075;28;19922;-78
2022/01/13 07:43:33;;;;;;;;;;;;;;;1.98;95.36;102262.41;8191076;28;19938;-77
2022/01/13 07:47:35;;;;;;;;;;;;;;;2.04;95.09;102261.88;8176922;28;19929;-78
2022/01/13 07:51:36;;;;;;;;;;;;;;;2.07;94.31;102257.19;8159900;28;20009;-78
2022/01/13 07:55:38;;;;;;;;;;;;;;;1.98;93.93;102265.13;8191556;28;19922;-79
2022/01/13 07:59:40;;;;;;;;;;;;;;;1.97;94.42;102266.16;8194903;28;19931;-78
2022/01/13 08:03:41;;;;;;;;;;;;;;;1.98;95.27;102267.00;8191418;28;19922;-78
2022/01/13 08:07:43;;;;;;;;;;;;;;;2.00;94.78;102255.00;8174679;28;19922;-78
2022/01/13 08:11:45;;;;;;;;;;;;;;;2.07;94.60;102266.19;8189018;28;19980;-78
2022/01/13 08:15:51;;;;;;;;;;;;;;;2.08;94.01;102267.06;8187044;28;19993;-79
2022/01/13 08:19:52;;;;;;;;;;;;;;;1.98;93.78;102267.00;8185137;28;20293;-78
2022/01/13 08:23:54;;;;;;;;;;;;;;;2.00;94.22;102275.91;8184804;28;19982;-78
2022/01/13 08:27:55;;;;;;;;;;;;;;;2.07;93.46;102277.06;8199816;28;20380;-78
2022/01/13 08:31:57;;;;;;;;;;;;;;;2.10;93.72;102276.81;8194944;28;20371;-79
2022/01/13 08:35:58;;;;;;;;;;;;;;;2.05;93.96;102279.94;8196387;28;19930;-79
2022/01/13 08:40:01;;;;;;;;;;;;;;;2.15;93.71;102269.13;8197812;28;19993;-80
2022/01/13 08:44:02;;;;;;;;;;;;;;;2.19;94.63;102275.13;8201467;28;20411;-79
2022/01/13 08:48:04;;;;;;;;;;;;;;;2.28;93.52;102271.59;8196325;28;19978;-79
2022/01/13 08:52:06;;;;;;;;;;;;;;;2.30;92.82;102276.94;8193170;28;19930;-79
2022/01/13 08:56:08;;;;;;;;;;;;;;;2.20;92.61;102288.63;8188986;28;19926;-79
2022/01/13 09:00:10;;;;;;;;;;;;;;;2.27;93.03;102278.91;8198893;28;19945;-79
2022/01/13 09:04:13;;;;;;;;;;;;;;;2.40;92.57;102266.94;8186489;28;19973;-79
2022/01/13 09:08:14;;;;;;;;;;;;;;;2.42;92.72;102271.25;8185042;28;19926;-80
2022/01/13 09:12:16;;;;;;;;;;;;;;;2.34;91.52;102272.94;8199119;28;19965;-79
2022/01/13 09:16:23;;;;;;;;;;;;;;;2.46;92.76;102274.56;8187027;28;20336;-79
2022/01/13 09:20:25;;;;;;;;;;;;;;;2.41;92.07;102268.66;8193704;28;19922;-79
2022/01/13 09:24:27;;;;;;;;;;;;;;;2.40;92.21;102285.97;8195715;28;20404;-79
2022/01/13 09:28:28;;;;;;;;;;;;;;;2.42;91.97;102284.84;8187317;28;19930;-80
2022/01/13 09:32:33;;;;;;;;;;;;;;;2.24;91.60;102289.22;8196072;28;19926;-80
2022/01/13 09:36:35;;;;;;;;;;;;;;;2.11;91.95;102299.41;8194862;28;19926;-79
2022/01/13 09:40:39;;;;;;;;;;;;;;;2.30;93.62;102299.53;8193165;28;19930;-80
2022/01/13 09:44:42;;;;;;;;;;;;;;;2.47;92.96;102298.06;8195288;28;20304;-79
2022/01/13 09:48:45;;;;;;;;;;;;;;;2.49;91.64;102304.22;8178678;28;20395;-79
2022/01/13 09:52:47;;;;;;;;;;;;;;;2.53;92.08;102304.81;8177262;28;19961;-80
2022/01/13 09:56:52;;;;;;;;;;;;;;;2.55;91.01;102308.25;8171227;28;19969;-80
2022/01/13 10:00:54;;;;;;;;;;;;;;;2.50;91.37;102309.53;8196625;28;19953;-79
2022/01/13 10:04:56;;;;;;;;;;;;;;;2.51;91.79;102311.25;8187800;28;19930;-80
2022/01/13 10:08:58;;;;;;;;;;;;;;;2.60;91.43;102315.03;8184310;28;20356;-80
2022/01/13 10:13:01;;;;;;;;;;;;;;;2.67;90.99;102299.84;8188247;28;19926;-80
2022/01/13 10:17:05;;;;;;;;;;;;;;;2.76;91.03;102302.75;8189779;28;19922;-80
2022/01/13 10:21:25;;;;;;;;;;;;;;;2.64;91.06;102302.00;8192475;28;19978;-80
2022/01/13 10:25:34;;;;;;;;;;;;;;;2.68;91.12;102298.88;8171156;28;19929;-80
2022/01/13 10:29:41;;;;;;;;;;;;;;;2.77;91.34;102301.75;8201256;28;19957;-80
2022/01/13 10:33:42;;;;;;;;;;;;;;;2.69;90.24;102295.13;8171972;28;19927;-79
2022/01/13 10:37:45;;;;;;;;;;;;;;;2.65;91.16;102304.59;8197506;28;20036;-80
2022/01/13 10:42:11;;;;;;;;;;;;;;;2.82;90.90;102304.91;8196262;28;20420;-79
2022/01/13 10:46:11;;;;;;;;;;;;;;;2.92;90.43;102303.13;8195314;28;19922;-80
2022/01/13 10:50:13;;;;;;;;;;;;;;;2.95;90.66;102291.94;8194113;28;19926;-79
2022/01/13 10:54:24;;;;;;;;;;;;;;;2.96;89.47;102285.47;8192272;28;19973;-80
2022/01/13 10:58:33;;;;;;;;;;;;;;;2.93;89.93;102283.88;8193706;28;20000;-80
2022/01/13 11:02:35;;;;;;;;;;;;;;;2.92;89.30;102282.19;8164619;28;19988;-80
2022/01/13 11:06:37;;;;;;;;;;;;;;;3.09;90.05;102268.88;8183964;28;19926;-80
2022/01/13 11:10:47;;;;;;;;;;;;;;;3.08;89.35;102262.56;8168046;28;20450;-80
2022/01/13 11:14:53;;;;;;;;;;;;;;;3.29;89.47;102259.72;8202636;28;19930;-80
2022/01/13 11:18:54;;;;;;;;;;;;;;;3.39;88.21;102246.09;8196105;28;20466;-81
2022/01/13 11:22:57;;;;;;;;;;;;;;;3.51;88.81;102244.97;8190841;28;19934;-80
2022/01/13 11:26:59;;;;;;;;;;;;;;;3.55;87.03;102242.81;8198541;28;20045;-80
2022/01/13 11:31:01;;;;;;;;;;;;;;;3.50;86.95;102258.72;8187471;29;19946;-80
2022/01/13 11:35:03;;;;;;;;;;;;;;;3.70;86.19;102246.81;8211705;28;19922;-79
2022/01/13 11:39:07;;;;;;;;;;;;;;;3.81;86.35;102235.75;8204129;28;19961;-79
2022/01/13 11:43:22;;;;;;;;;;;;;;;4.10;85.85;102232.06;8198238;28;20058;-80
2022/01/13 11:47:28;;;;;;;;;;;;;;;4.25;84.45;102230.59;8160590;28;19930;-80
2022/01/13 11:51:43;;;;;;;;;;;;;;;4.13;83.87;102220.00;8201689;28;19930;-81
2022/01/13 11:55:49;;;;;;;;;;;;;;;4.07;84.70;102214.13;8179689;28;19926;-80
2022/01/13 12:00:17;;;;;;;;;;;;;;;4.13;84.81;102209.94;8176013;28;19927;-80
2022/01/13 12:04:23;;;;;;;;;;;;;;;4.05;83.92;102207.97;8184455;28;20024;-80
2022/01/13 12:08:34;;;;;;;;;;;;;;;4.05;84.98;102202.50;8173263;28;20699;-79
2022/01/13 12:12:37;;;;;;;;;;;;;;;3.96;84.86;102199.81;8181060;28;19981;-80
2022/01/13 12:16:55;;;;;;;;;;;;;;;3.92;84.91;102199.25;8183153;28;20031;-80
2022/01/13 12:21:10;;;;;;;;;;;;;;;3.82;84.06;102207.44;8185077;28;20292;-80
2022/01/13 12:25:13;;;;;;;;;;;;;;;4.03;84.50;102207.25;8185531;28;20376;-80
2022/01/13 12:29:18;;;;;;;;;;;;;;;4.00;84.16;102214.88;8181016;28;19966;-80
2022/01/13 12:33:31;;;;;;;;;;;;;;;4.03;84.38;102215.44;8180958;28;19957;-80
2022/01/13 12:37:39;;;;;;;;;;;;;;;3.93;85.19;102222.81;8173057;28;19926;-80
2022/01/13 12:41:59;;;;;;;;;;;;;;;4.19;84.98;102216.66;8185023;28;20021;-79
2022/01/13 12:46:08;;;;;;;;;;;;;;;4.43;84.45;102208.84;8183692;28;19923;-80
2022/01/13 12:50:14;;;;;;;;;;;;;;;4.68;82.93;102200.94;8206413;28;19931;-79
2022/01/13 12:54:17;;;;;;;;;;;;;;;4.82;82.52;102200.44;8185105;28;20395;-80
2022/01/13 12:58:45;;;;;;;;;;;;;;;4.90;82.05;102200.50;8199735;28;20089;-81
2022/01/13 13:02:53;;;;;;;;;;;;;;;5.07;82.42;102197.94;8195886;28;19922;-80
2022/01/13 13:06:55;;;;;;;;;;;;;;;5.20;80.98;102204.72;8196050;28;19933;-80
2022/01/13 13:10:59;;;;;;;;;;;;;;;5.00;80.78;102198.56;8206514;28;19973;-81
2022/01/13 13:19:22;;;;;;;;;;;;;;;4.31;83.65;102182.72;8192320;28;20273;-80
2022/01/13 13:23:32;;;;;;;;;;;;;;;4.04;82.54;102184.41;8193028;28;19985;-80
2022/01/13 13:27:36;;;;;;;;;;;;;;;3.73;83.80;102166.56;8188937;28;20462;-80
2022/01/13 13:31:40;;;;;;;;;;;;;;;3.42;84.38;102173.09;8187668;28;19926;-80
2022/01/13 13:35:44;;;;;;;;;;;;;;;3.34;85.47;102177.53;8196651;28;19977;-80
2022/01/13 13:39:47;;;;;;;;;;;;;;;3.46;85.24;102170.94;8186911;28;19930;-80
2022/01/13 13:43:48;;;;;;;;;;;;;;;3.54;85.55;102173.78;8190638;28;19961;-80
2022/01/13 13:47:57;;;;;;;;;;;;;;;3.53;85.56;102180.22;8193248;28;20308;-81
2022/01/13 13:52:00;;;;;;;;;;;;;;;3.50;85.26;102169.63;8195056;28;19926;-83
2022/01/13 13:56:03;;;;;;;;;;;;;;;3.35;85.40;102171.09;8190912;28;20005;-80
2022/01/13 14:00:09;;;;;;;;;;;;;;;3.20;85.97;102166.06;8175476;28;19931;-81
2022/01/13 14:04:11;;;;;;;;;;;;;;;3.04;87.09;102163.06;8189264;28;20344;-80
2022/01/13 14:08:13;;;;;;;;;;;;;;;2.93;88.23;102160.47;8194629;28;20388;-81
2022/01/13 14:12:24;;;;;;;;;;;;;;;2.95;88.15;102163.94;8195293;28;20013;-80
2022/01/13 14:16:35;;;;;;;;;;;;;;;2.87;87.40;102161.91;8192266;28;19930;-81
2022/01/13 14:20:39;;;;;;;;;;;;;;;2.69;89.25;102169.06;8172610;28;19923;-80
2022/01/13 14:24:41;;;;;;;;;;;;;;;2.74;88.92;102154.00;8196957;28;20435;-80
2022/01/13 14:28:50;;;;;;;;;;;;;;;2.77;88.83;102152.00;8192705;28;19926;-81
2022/01/13 14:32:51;;;;;;;;;;;;;;;2.66;89.60;102150.28;8199356;28;19929;-80
2022/01/13 14:36:54;;;;;;;;;;;;;;;2.58;89.54;102145.53;8196898;28;19931;-80
2022/01/13 14:40:56;;;;;;;;;;;;;;;2.57;90.15;102162.00;8196710;28;19922;-80
2022/01/13 14:45:16;;;;;;;;;;;;;;;2.61;89.64;102163.44;8195040;28;19926;-79
2022/01/13 14:49:18;;;;;;;;;;;;;;;2.53;90.15;102169.59;8200566;28;19922;-81
2022/01/13 14:53:20;;;;;;;;;;;;;;;2.50;90.03;102168.00;8197546;28;19926;-81
2022/01/13 14:57:21;;;;;;;;;;;;;;;2.40;90.63;102164.38;8194361;28;19926;-80
2022/01/13 15:01:23;;;;;;;;;;;;;;;2.41;93.18;102155.25;8197153;28;19926;-80
2022/01/13 15:05:27;;;;;;;;;;;;;;;2.44;91.85;102156.81;8192170;28;20427;-81
2022/01/13 15:09:34;;;;;;;;;;;;;;;2.43;91.68;102155.09;8186789;28;20046;-81
2022/01/13 15:13:35;;;;;;;;;;;;;;;2.43;90.72;102149.66;8194329;28;19926;-81
2022/01/13 15:17:38;;;;;;;;;;;;;;;2.42;93.49;102148.78;8187325;28;19926;-80
2022/01/13 15:21:43;;;;;;;;;;;;;;;2.49;91.96;102143.66;8207581;28;19930;-81
2022/01/13 15:25:44;;;;;;;;;;;;;;;2.40;92.06;102142.63;8189736;28;19956;-80
2022/01/13 15:29:46;;;;;;;;;;;;;;;2.36;92.25;102140.34;8224869;28;20026;-79
2022/01/13 15:33:47;;;;;;;;;;;;;;;2.20;91.76;102136.28;8183985;28;19927;-79
2022/01/13 15:37:50;;;;;;;;;;;;;;;2.03;93.10;102137.78;8200389;28;19922;-80
2022/01/13 15:41:52;;;;;;;;;;;;;;;1.97;92.36;102145.63;8188332;28;19952;-80
2022/01/13 15:45:54;;;;;;;;;;;;;;;1.92;93.79;102159.63;8195520;28;20295;-80
2022/01/13 15:49:55;;;;;;;;;;;;;;;1.97;94.10;102146.50;8197925;28;20459;-79
2022/01/13 15:53:57;;;;;;;;;;;;;;;2.04;94.64;102134.06;8196295;28;19955;-80
2022/01/13 15:57:58;;;;;;;;;;;;;;;2.04;93.00;102131.34;8188518;28;19969;-79
2022/01/13 16:01:59;;;;;;;;;;;;;;;1.83;94.58;102131.41;8201546;28;19926;-79
2022/01/13 16:06:01;;;;;;;;;;;;;;;1.86;95.32;102127.56;8200414;28;19954;-79
2022/01/13 16:10:04;;;;;;;;;;;;;;;1.86;95.33;102132.13;8194717;28;19922;-80
2022/01/13 16:14:07;;;;;;;;;;;;;;;1.69;96.88;102125.47;8198951;28;19926;-79
2022/01/13 16:18:11;;;;;;;;;;;;;;;1.72;97.00;102123.31;8180438;28;19957;-79
2022/01/13 16:22:12;;;;;;;;;;;;;;;1.71;96.43;102124.34;8187914;28;19927;-80
2022/01/13 16:26:16;;;;;;;;;;;;;;;1.62;95.95;102127.88;8179592;28;19931;-80
2022/01/13 16:30:23;;;;;;;;;;;;;;;1.55;96.79;102118.53;8196756;28;19922;-79
2022/01/13 16:34:28;;;;;;;;;;;;;;;1.55;95.74;102119.41;8203053;28;19930;-78
2022/01/13 16:38:31;;;;;;;;;;;;;;;1.48;96.46;102129.06;8195711;28;20008;-79
2022/01/13 16:42:34;;;;;;;;;;;;;;;1.52;96.88;102132.41;8193459;28;19926;-79
2022/01/13 16:46:36;;;;;;;;;;;;;;;1.53;96.50;102134.09;8180945;28;19922;-78
2022/01/13 16:50:38;;;;;;;;;;;;;;;1.49;95.85;102136.25;8183777;28;19926;-78
2022/01/13 16:54:40;;;;;;;;;;;;;;;1.48;95.78;102133.63;8195966;28;20660;-78
2022/01/13 16:58:42;;;;;;;;;;;;;;;1.36;98.52;102124.69;8165739;28;19926;-78
2022/01/13 17:02:46;;;;;;;;;;;;;;;1.44;98.82;102126.75;8195678;28;20474;-79
2022/01/13 17:07:09;;;;;;;;;;;;;;;1.44;98.62;102124.03;8165449;28;19976;-78
2022/01/13 17:11:10;;;;;;;;;;;;;;;1.35;98.55;102125.69;8173571;28;19930;-79
2022/01/13 17:15:12;;;;;;;;;;;;;;;1.24;98.27;102120.34;8194036;28;19962;-79
2022/01/13 17:19:15;;;;;;;;;;;;;;;1.20;98.39;102121.59;8184710;28;20384;-79
2022/01/13 17:23:24;;;;;;;;;;;;;;;1.19;98.47;102122.56;8188092;28;19926;-79
2022/01/13 17:27:27;;;;;;;;;;;;;;;1.16;98.11;102123.72;8173508;28;19949;-79
2022/01/13 17:31:30;;;;;;;;;;;;;;;1.17;99.81;102125.44;8188657;28;19927;-79
2022/01/13 17:35:31;;;;;;;;;;;;;;;1.27;100.00;102125.50;8182017;28;19923;-79
2022/01/13 17:39:33;;;;;;;;;;;;;;;1.27;100.00;102122.78;8184927;28;20407;-78
2022/01/13 17:43:35;;;;;;;;;;;;;;;1.31;99.89;102118.81;8186194;28;19926;-79
2022/01/13 17:47:37;;;;;;;;;;;;;;;1.36;100.00;102117.41;8169644;28;20303;-79
2022/01/13 17:51:38;;;;;;;;;;;;;;;1.46;100.00;102113.88;8191559;28;20313;-78
2022/01/13 17:55:41;;;;;;;;;;;;;;;1.50;99.89;102107.22;8172109;28;20005;-78
2022/01/13 17:59:43;;;;;;;;;;;;;;;1.48;100.00;102111.91;8175302;28;20639;-79
2022/01/13 18:03:44;;;;;;;;;;;;;;;1.52;100.00;102118.81;8196513;28;19930;-78
2022/01/13 18:07:46;;;;;;;;;;;;;;;1.60;100.00;102113.53;8188717;28;19935;-79
2022/01/13 18:11:47;;;;;;;;;;;;;;;1.53;99.03;102107.78;8193422;28;19930;-79
2022/01/13 18:15:52;;;;;;;;;;;;;;;1.41;99.36;102102.56;8188640;28;20363;-79
2022/01/13 18:19:54;;;;;;;;;;;;;;;1.41;100.00;102110.72;8193984;28;19923;-78
2022/01/13 18:23:58;;;;;;;;;;;;;;;1.47;100.00;102107.47;8186668;28;19934;-78
2022/01/13 18:28:00;;;;;;;;;;;;;;;1.51;100.00;102111.63;8194305;28;19957;-79
2022/01/13 18:32:01;;;;;;;;;;;;;;;1.50;100.00;102107.22;8196177;28;19923;-79
2022/01/13 18:36:03;;;;;;;;;;;;;;;1.53;100.00;102094.19;8212426;28;19930;-79
2022/01/13 18:40:05;;;;;;;;;;;;;;;1.53;100.00;102091.50;8194561;28;19934;-78
2022/01/13 18:44:07;;;;;;;;;;;;;;;1.51;100.00;102090.75;8183380;28;19922;-79
2022/01/13 18:48:09;;;;;;;;;;;;;;;1.48;100.00;102082.88;8186906;28;19923;-78
2022/01/13 18:52:11;;;;;;;;;;;;;;;1.49;100.00;102075.59;8172902;28;20054;-79
2022/01/13 18:56:13;;;;;;;;;;;;;;;1.45;100.00;102066.84;8188533;28;19922;-77
2022/01/13 19:00:40;;;;;;;;;;;;;;;1.45;100.00;102075.00;8183342;28;19957;-80
2022/01/13 19:04:43;;;;;;;;;;;;;;;1.38;100.00;102081.97;8189759;28;19926;-80
2022/01/13 19:08:44;;;;;;;;;;;;;;;1.43;100.00;102081.56;8175203;28;20383;-80
2022/01/13 19:12:46;;;;;;;;;;;;;;;1.38;100.00;102083.84;8188490;28;19927;-81
2022/01/13 19:16:49;;;;;;;;;;;;;;;1.40;100.00;102084.53;8163487;28;19954;-81
2022/01/13 19:20:50;;;;;;;;;;;;;;;1.31;100.00;102089.81;8190010;28;19930;-82
2022/01/13 19:24:52;;;;;;;;;;;;;;;1.30;100.00;102082.63;8184340;28;20439;-82
2022/01/13 19:28:53;;;;;;;;;;;;;;;1.30;100.00;102087.19;8189871;28;19954;-82
2022/01/13 19:32:56;;;;;;;;;;;;;;;1.28;100.00;102078.31;8180136;28;19926;-80
2022/01/13 19:36:58;;;;;;;;;;;;;;;1.21;100.00;102074.44;8194841;28;19934;-80
2022/01/13 19:40:59;;;;;;;;;;;;;;;1.24;100.00;102066.88;8214467;28;19926;-81
2022/01/13 19:45:02;;;;;;;;;;;;;;;1.21;100.00;102061.69;8190515;28;19989;-82
2022/01/13 19:49:03;;;;;;;;;;;;;;;1.11;100.00;102052.66;8192594;28;20289;-81
2022/01/13 19:53:14;;;;;;;;;;;;;;;1.01;100.00;102046.28;8182198;28;19926;-81
2022/01/13 19:57:21;;;;;;;;;;;;;;;0.93;100.00;102052.38;8176858;28;19922;-81
2022/01/13 20:01:26;;;;;;;;;;;;;;;0.83;100.00;102063.19;8204706;28;19933;-82
2022/01/13 20:05:28;;;;;;;;;;;;;;;0.72;100.00;102076.81;8197595;28;19922;-81
2022/01/13 20:09:31;;;;;;;;;;;;;;;0.68;100.00;102078.03;8198439;28;19927;-81
2022/01/13 20:13:34;;;;;;;;;;;;;;;0.62;100.00;102075.84;8194435;28;20017;-81
2022/01/13 20:17:38;;;;;;;;;;;;;;;0.67;100.00;102079.03;8179756;28;20344;-80
2022/01/13 20:21:40;;;;;;;;;;;;;;;0.71;100.00;102071.50;8192064;28;20029;-81
2022/01/13 20:25:42;;;;;;;;;;;;;;;0.82;100.00;102066.00;8168732;28;19933;-82
2022/01/13 20:29:43;;;;;;;;;;;;;;;0.87;100.00;102058.34;8171509;28;19969;-82
2022/01/13 20:33:45;;;;;;;;;;;;;;;0.93;100.00;102055.09;8194949;28;19949;-82
2022/01/13 20:37:46;;;;;;;;;;;;;;;0.93;100.00;102048.81;8197251;28;19923;-81
2022/01/13 20:41:48;;;;;;;;;;;;;;;0.82;100.00;102039.72;8200812;28;19926;-82
2022/01/13 20:45:49;;;;;;;;;;;;;;;0.82;100.00;102037.00;8195842;28;20343;-81
2022/01/13 20:49:51;;;;;;;;;;;;;;;0.77;100.00;102033.81;8184994;28;19926;-82
2022/01/13 20:53:52;;;;;;;;;;;;;;;0.68;100.00;102027.38;8193265;28;19926;-82
2022/01/13 20:57:54;;;;;;;;;;;;;;;0.64;100.00;102025.88;8191872;28;20032;-81
2022/01/13 21:01:56;;;;;;;;;;;;;;;0.68;100.00;102019.22;8190741;28;19933;-82
2022/01/13 21:05:57;;;;;;;;;;;;;;;0.74;100.00;102025.09;8196507;28;19926;-82
2022/01/13 21:10:00;;;;;;;;;;;;;;;0.69;100.00;102022.78;8203076;28;19938;-83
2022/01/13 21:14:02;;;;;;;;;;;;;;;0.69;100.00;102022.78;8219035;28;19933;-83
2022/01/13 21:18:06;;;;;;;;;;;;;;;0.74;100.00;102023.22;8198446;28;19965;-83
2022/01/13 21:22:07;;;;;;;;;;;;;;;0.63;100.00;102013.31;8195091;28;19931;-80
2022/01/13 21:26:09;;;;;;;;;;;;;;;0.45;100.00;102007.59;8184559;28;19922;-82
2022/01/13 21:30:12;;;;;;;;;;;;;;;0.49;100.00;102010.06;8172991;28;19923;-81